createdAt,value
2022-12-23T00:01:28.509Z,11.90
2022-12-23T00:03:59.896Z,11.75
2022-12-23T00:06:28.243Z,11.86
2022-12-23T00:08:58.654Z,11.85
2022-12-23T00:11:29.848Z,11.87
2022-12-23T00:14:21.114Z,11.84
2022-12-23T00:16:51.351Z,11.77
2022-12-23T00:19:19.518Z,11.88
2022-12-23T00:21:48.564Z,11.78
2022-12-23T00:24:16.534Z,11.76
2022-12-23T00:26:45.802Z,11.81
2022-12-23T00:29:13.971Z,11.86
2022-12-23T00:31:41.856Z,11.79
2022-12-23T00:34:12.214Z,11.51
2022-12-23T00:36:40.785Z,11.27
2022-12-23T00:39:30.657Z,11.17
2022-12-23T00:42:17.382Z,11.80
2022-12-23T00:44:45.844Z,11.31
2022-12-23T00:47:34.994Z,11.25
2022-12-23T00:50:01.964Z,11.30
2022-12-23T00:52:29.748Z,11.32
2022-12-23T00:54:57.761Z,11.52
2022-12-23T00:57:27.000Z,11.26
2022-12-23T00:59:54.760Z,11.25
2022-12-23T01:02:40.509Z,11.43
2022-12-23T01:05:37.380Z,11.46
2022-12-23T01:08:07.127Z,11.35
2022-12-23T01:10:36.064Z,11.28
2022-12-23T01:13:05.550Z,11.21
2022-12-23T01:15:34.714Z,11.27
2022-12-23T01:18:02.499Z,11.15
2022-12-23T01:20:30.293Z,11.33
2022-12-23T01:22:58.156Z,11.13
2022-12-23T01:25:26.114Z,11.04
2022-12-23T01:27:53.860Z,11.27
2022-12-23T01:30:23.460Z,11.39
2022-12-23T01:32:51.357Z,11.33
2022-12-23T01:35:19.332Z,11.31
2022-12-23T01:37:47.320Z,11.23
2022-12-23T01:40:15.225Z,11.71
2022-12-23T01:42:44.914Z,11.43
2022-12-23T01:45:19.906Z,11.44
2022-12-23T01:47:56.910Z,11.53
2022-12-23T01:50:32.366Z,11.57
2022-12-23T01:53:08.501Z,11.53
2022-12-23T01:55:42.962Z,11.87
2022-12-23T01:58:16.221Z,11.85
2022-12-23T02:01:02.760Z,12.07
2022-12-23T02:03:44.686Z,12.03
2022-12-23T02:06:38.288Z,11.77
2022-12-23T02:09:20.084Z,11.79
2022-12-23T02:12:38.857Z,11.69
2022-12-23T02:15:50.867Z,11.71
2022-12-23T02:18:42.092Z,11.55
2022-12-23T02:21:58.227Z,11.60
2022-12-23T02:25:17.050Z,11.50
2022-12-23T02:28:10.246Z,11.77
2022-12-23T02:30:49.518Z,11.57
2022-12-23T02:33:44.772Z,11.72
2022-12-23T02:36:35.543Z,11.60
2022-12-23T02:39:11.198Z,11.78
2022-12-23T02:41:50.034Z,11.61
2022-12-23T02:44:31.067Z,11.19
2022-12-23T02:47:06.672Z,11.18
2022-12-23T02:49:40.465Z,11.74
2022-12-23T02:52:15.208Z,11.40
2022-12-23T02:54:49.886Z,11.16
2022-12-23T02:57:25.866Z,11.32
2022-12-23T02:59:55.270Z,11.66
2022-12-23T03:02:24.787Z,11.72
2022-12-23T03:04:52.645Z,11.56
2022-12-23T03:07:28.966Z,11.61
2022-12-23T03:10:06.471Z,11.80
2022-12-23T03:12:56.131Z,11.62
2022-12-23T03:15:40.152Z,11.31
2022-12-23T03:18:25.194Z,11.63
2022-12-23T03:20:59.795Z,11.70
2022-12-23T03:23:33.594Z,11.12
2022-12-23T03:26:10.040Z,11.03
2022-12-23T03:28:46.148Z,11.23
2022-12-23T03:31:23.002Z,11.29
2022-12-23T03:33:58.329Z,11.46
2022-12-23T03:36:34.019Z,11.29
2022-12-23T03:39:06.784Z,10.98
2022-12-23T03:41:42.047Z,11.02
2022-12-23T03:44:17.359Z,10.52
2022-12-23T03:46:51.909Z,10.65
2022-12-23T03:49:28.931Z,10.82
2022-12-23T03:52:04.840Z,11.09
2022-12-23T03:54:42.348Z,11.14
2022-12-23T03:57:14.236Z,11.21
2022-12-23T03:59:46.598Z,11.22
2022-12-23T04:02:23.705Z,10.96
2022-12-23T04:05:11.717Z,11.13
2022-12-23T04:07:46.537Z,11.28
2022-12-23T04:10:15.602Z,11.26
2022-12-23T04:12:45.207Z,11.09
2022-12-23T04:15:13.677Z,11.02
2022-12-23T04:17:41.579Z,10.86
2022-12-23T04:20:12.303Z,11.06
2022-12-23T04:22:43.403Z,11.13
2022-12-23T04:25:11.825Z,11.11
2022-12-23T04:27:40.130Z,11.17
2022-12-23T04:30:11.506Z,11.11
2022-12-23T04:32:39.492Z,11.21
2022-12-23T04:35:08.169Z,11.31
2022-12-23T04:37:37.609Z,11.39
2022-12-23T04:40:07.714Z,11.21
2022-12-23T04:42:35.753Z,11.46
2022-12-23T04:45:03.904Z,11.11
2022-12-23T04:47:31.664Z,11.12
2022-12-23T04:49:59.697Z,11.14
2022-12-23T04:52:27.715Z,11.02
2022-12-23T04:54:56.867Z,11.14
2022-12-23T04:57:24.687Z,10.75
2022-12-23T04:59:52.481Z,11.22
2022-12-23T05:02:20.464Z,11.24
2022-12-23T05:04:48.303Z,11.06
2022-12-23T05:07:16.410Z,11.07
2022-12-23T05:09:44.454Z,10.96
2022-12-23T05:12:13.868Z,10.80
2022-12-23T05:14:42.135Z,10.68
2022-12-23T05:17:09.955Z,11.10
2022-12-23T05:19:37.699Z,10.76
2022-12-23T05:22:05.780Z,10.82
2022-12-23T05:24:33.573Z,11.14
2022-12-23T05:27:01.282Z,11.35
2022-12-23T05:29:30.703Z,11.38
2022-12-23T05:31:58.631Z,11.21
2022-12-23T05:34:26.479Z,10.98
2022-12-23T05:36:54.260Z,11.07
2022-12-23T05:39:22.183Z,11.21
2022-12-23T05:41:49.979Z,11.08
2022-12-23T05:44:17.795Z,11.32
2022-12-23T05:46:47.206Z,11.15
2022-12-23T05:49:15.170Z,11.01
2022-12-23T05:51:42.993Z,11.33
2022-12-23T05:54:10.992Z,11.28
2022-12-23T05:56:38.727Z,11.21
2022-12-23T05:59:06.628Z,11.42
2022-12-23T06:01:34.667Z,11.54
2022-12-23T06:04:04.380Z,11.47
2022-12-23T06:06:32.321Z,11.62
2022-12-23T06:09:00.510Z,11.25
2022-12-23T06:11:28.822Z,11.60
2022-12-23T06:13:56.623Z,11.76
2022-12-23T06:16:24.487Z,11.79
2022-12-23T06:18:56.258Z,11.58
2022-12-23T06:21:26.582Z,11.80
2022-12-23T06:23:54.372Z,11.98
2022-12-23T06:26:22.534Z,12.07
2022-12-23T06:28:50.392Z,11.61
2022-12-23T06:31:18.360Z,11.60
2022-12-23T06:33:46.670Z,11.79
2022-12-23T06:36:14.465Z,11.83
2022-12-23T06:38:43.628Z,11.82
2022-12-23T06:41:11.371Z,11.78
2022-12-23T06:43:39.213Z,11.52
2022-12-23T06:46:07.062Z,11.74
2022-12-23T06:48:35.017Z,11.85
2022-12-23T06:51:02.880Z,11.81
2022-12-23T06:53:30.638Z,12.00
2022-12-23T06:56:03.191Z,12.07
2022-12-23T06:58:31.176Z,11.94
2022-12-23T07:00:59.262Z,11.93
2022-12-23T07:03:27.136Z,11.91
2022-12-23T07:05:55.365Z,11.60
2022-12-23T07:08:23.296Z,12.05
2022-12-23T07:10:51.237Z,11.97
2022-12-23T07:13:20.336Z,12.04
2022-12-23T07:15:48.294Z,11.98
2022-12-23T07:18:16.275Z,11.97
2022-12-23T07:20:44.243Z,11.84
2022-12-23T07:23:12.204Z,12.02
2022-12-23T07:25:40.060Z,11.49
2022-12-23T07:28:08.219Z,10.95
2022-12-23T07:30:37.753Z,11.27
2022-12-23T07:33:05.515Z,10.81
2022-12-23T07:35:33.795Z,11.21
2022-12-23T07:38:01.819Z,10.71
2022-12-23T07:40:29.768Z,10.50
2022-12-23T07:42:59.980Z,11.50
2022-12-23T07:45:28.954Z,11.47
2022-12-23T07:48:00.948Z,11.13
2022-12-23T07:50:32.312Z,11.63
2022-12-23T07:53:00.688Z,11.73
2022-12-23T07:55:28.651Z,11.81
2022-12-23T07:57:56.611Z,11.78
2022-12-23T08:00:24.641Z,11.96
2022-12-23T08:02:52.687Z,11.78
2022-12-23T08:05:22.299Z,11.79
2022-12-23T08:07:50.601Z,11.80
2022-12-23T08:10:18.774Z,11.83
2022-12-23T08:12:47.520Z,11.36
2022-12-23T08:15:15.940Z,11.33
2022-12-23T08:17:44.296Z,11.55
2022-12-23T08:20:12.814Z,11.81
2022-12-23T08:22:41.957Z,11.97
2022-12-23T08:25:10.365Z,11.87
2022-12-23T08:27:38.208Z,11.80
2022-12-23T08:30:08.028Z,11.45
2022-12-23T08:32:35.954Z,11.29
2022-12-23T08:35:03.777Z,11.48
2022-12-23T08:37:31.531Z,11.77
2022-12-23T08:40:01.109Z,11.92
2022-12-23T08:42:29.137Z,11.91
2022-12-23T08:44:57.225Z,11.95
2022-12-23T08:47:24.991Z,11.98
2022-12-23T08:49:53.276Z,12.06
2022-12-23T08:52:21.081Z,11.89
2022-12-23T08:54:48.928Z,12.21
2022-12-23T08:57:18.382Z,12.15
2022-12-23T08:59:47.269Z,11.79
2022-12-23T09:02:15.384Z,11.58
2022-12-23T09:04:43.584Z,11.79
2022-12-23T09:07:11.470Z,11.78
2022-12-23T09:09:39.445Z,11.67
2022-12-23T09:12:07.612Z,11.93
2022-12-23T09:14:36.887Z,11.45
2022-12-23T09:17:04.904Z,11.74
2022-12-23T09:19:32.748Z,11.69
2022-12-23T09:22:00.450Z,11.90
2022-12-23T09:24:28.676Z,11.94
2022-12-23T09:26:56.503Z,12.14
2022-12-23T09:29:24.454Z,12.15
2022-12-23T09:31:54.145Z,12.07
2022-12-23T09:34:22.045Z,11.77
2022-12-23T09:36:55.034Z,12.15
2022-12-23T09:39:24.411Z,12.13
2022-12-23T09:42:14.500Z,12.15
2022-12-23T09:45:12.312Z,12.02
2022-12-23T09:47:44.184Z,12.25
2022-12-23T09:50:25.216Z,11.08
2022-12-23T09:53:03.505Z,10.86
2022-12-23T09:55:45.180Z,11.15
2022-12-23T09:58:29.149Z,10.57
2022-12-23T10:01:15.683Z,11.18
2022-12-23T10:04:18.127Z,10.37
2022-12-23T10:06:56.324Z,10.57
2022-12-23T10:09:30.853Z,11.04
2022-12-23T10:12:00.832Z,11.02
2022-12-23T10:14:33.076Z,11.08
2022-12-23T10:17:10.698Z,11.09
2022-12-23T10:19:45.091Z,11.12
2022-12-23T10:22:22.194Z,11.22
2022-12-23T10:24:51.534Z,11.41
2022-12-23T10:27:29.379Z,11.57
2022-12-23T10:30:13.920Z,11.86
2022-12-23T10:33:04.523Z,11.45
2022-12-23T10:35:51.085Z,11.29
2022-12-23T10:38:47.494Z,11.25
2022-12-23T10:41:35.317Z,11.36
2022-12-23T10:45:00.677Z,11.55
2022-12-23T10:47:49.085Z,11.58
2022-12-23T10:50:55.436Z,11.78
2022-12-23T10:53:36.734Z,11.58
2022-12-23T10:56:07.884Z,11.60
2022-12-23T10:58:41.639Z,11.70
2022-12-23T11:01:18.852Z,11.41
2022-12-23T11:04:04.238Z,11.62
2022-12-23T11:06:39.824Z,11.65
2022-12-23T11:09:18.042Z,11.74
2022-12-23T11:11:57.990Z,11.82
2022-12-23T11:14:38.978Z,11.85
2022-12-23T11:17:20.458Z,11.74
2022-12-23T11:19:48.276Z,11.71
2022-12-23T11:22:26.386Z,11.40
2022-12-23T11:24:54.168Z,11.73
2022-12-23T11:27:22.148Z,11.65
2022-12-23T11:29:55.388Z,11.69
2022-12-23T11:32:27.261Z,11.69
2022-12-23T11:34:57.084Z,11.63
2022-12-23T11:37:37.190Z,11.56
2022-12-23T11:40:15.736Z,11.58
2022-12-23T11:42:44.354Z,11.76
2022-12-23T11:45:24.256Z,11.67
2022-12-23T11:47:52.374Z,11.57
2022-12-23T11:50:34.391Z,11.73
2022-12-23T11:53:20.866Z,11.74
2022-12-23T11:56:02.111Z,11.76
2022-12-23T11:58:37.202Z,11.73
2022-12-23T12:01:17.515Z,11.65
2022-12-23T12:03:52.034Z,11.63
2022-12-23T12:06:22.827Z,11.63
2022-12-23T12:08:54.707Z,11.62
2022-12-23T12:11:28.880Z,11.30
2022-12-23T12:14:01.953Z,11.42
2022-12-23T12:16:55.001Z,11.36
2022-12-23T12:19:29.495Z,11.64
2022-12-23T12:22:03.435Z,11.59
2022-12-23T12:24:42.893Z,11.63
2022-12-23T12:27:12.824Z,11.54
2022-12-23T12:29:48.104Z,11.51
2022-12-23T12:32:23.560Z,11.52
2022-12-23T12:35:00.056Z,11.40
2022-12-23T12:37:39.059Z,11.44
2022-12-23T12:40:29.098Z,11.57
2022-12-23T12:43:05.858Z,11.40
2022-12-23T12:45:39.222Z,11.18
2022-12-23T12:48:41.897Z,11.30
2022-12-23T12:51:22.080Z,11.39
2022-12-23T12:54:19.477Z,11.34
2022-12-23T12:56:53.243Z,11.34
2022-12-23T12:59:25.955Z,11.43
2022-12-23T13:02:31.898Z,11.26
2022-12-23T13:05:38.983Z,11.16
2022-12-23T13:08:32.450Z,11.26
2022-12-23T13:11:10.699Z,11.30
2022-12-23T13:13:51.324Z,11.16
2022-12-23T13:16:41.887Z,11.47
2022-12-23T13:19:26.384Z,11.35
2022-12-23T13:22:07.604Z,11.20
2022-12-23T13:24:49.425Z,11.20
2022-12-23T13:27:28.190Z,11.12
2022-12-23T13:30:13.044Z,11.15
2022-12-23T13:33:23.170Z,11.26
2022-12-23T13:36:12.889Z,11.17
2022-12-23T13:39:03.943Z,11.16
2022-12-23T13:41:36.604Z,11.20
2022-12-23T13:44:07.448Z,11.20
2022-12-23T13:46:53.160Z,11.13
2022-12-23T13:49:47.165Z,11.05
2022-12-23T13:52:27.440Z,11.04
2022-12-23T13:55:11.646Z,11.03
2022-12-23T13:57:55.833Z,11.05
2022-12-23T14:00:30.455Z,11.21
2022-12-23T14:03:24.623Z,11.23
2022-12-23T14:05:54.263Z,11.23
2022-12-23T14:08:29.669Z,11.33
2022-12-23T14:11:00.914Z,11.37
2022-12-23T14:13:45.831Z,11.21
2022-12-23T14:16:41.986Z,11.20
2022-12-23T14:19:40.541Z,11.18
2022-12-23T14:22:31.731Z,11.18
2022-12-23T14:25:41.046Z,11.32
2022-12-23T14:28:28.927Z,11.39
2022-12-23T14:30:57.408Z,11.24
2022-12-23T14:33:29.042Z,11.46
2022-12-23T14:36:22.101Z,11.55
2022-12-23T14:39:32.865Z,11.55
2022-12-23T14:42:05.923Z,11.50
2022-12-23T14:44:52.576Z,11.35
2022-12-23T14:47:34.912Z,11.78
2022-12-23T14:50:42.645Z,11.45
2022-12-23T14:53:26.601Z,11.57
2022-12-23T14:56:21.625Z,11.77
2022-12-23T14:59:14.535Z,11.64
2022-12-23T15:01:48.624Z,11.54
2022-12-23T15:04:25.523Z,11.57
2022-12-23T15:06:57.362Z,11.33
2022-12-23T15:09:31.219Z,11.37
2022-12-23T15:12:03.138Z,11.58
2022-12-23T15:14:36.701Z,11.64
2022-12-23T15:17:26.361Z,11.48
2022-12-23T15:20:03.074Z,11.46
2022-12-23T15:22:32.883Z,11.46
2022-12-23T15:25:02.133Z,11.38
2022-12-23T15:27:36.359Z,11.63
2022-12-23T15:30:04.942Z,11.46
2022-12-23T15:32:33.007Z,11.81
2022-12-23T15:35:06.887Z,11.14
2022-12-23T15:37:35.883Z,11.11
2022-12-23T15:40:13.408Z,10.98
2022-12-23T15:42:48.973Z,10.98
2022-12-23T15:45:34.858Z,11.32
2022-12-23T15:48:05.517Z,10.92
2022-12-23T15:50:42.338Z,11.24
2022-12-23T15:53:14.227Z,11.35
2022-12-23T15:55:43.717Z,11.68
2022-12-23T15:58:22.444Z,11.77
2022-12-23T16:00:57.490Z,11.37
2022-12-23T16:03:34.527Z,11.55
2022-12-23T16:06:18.585Z,11.74
2022-12-23T16:08:47.054Z,11.71
2022-12-23T16:11:19.443Z,11.36
2022-12-23T16:13:59.413Z,10.95
2022-12-23T16:16:43.000Z,11.14
2022-12-23T16:19:43.096Z,11.61
2022-12-23T16:22:38.460Z,11.36
2022-12-23T16:25:16.236Z,11.23
2022-12-23T16:27:50.199Z,11.34
2022-12-23T16:30:21.754Z,11.59
2022-12-23T16:32:54.590Z,11.51
2022-12-23T16:35:31.526Z,11.78
2022-12-23T16:38:14.116Z,11.14
2022-12-23T16:40:43.578Z,11.22
2022-12-23T16:43:12.998Z,10.97
2022-12-23T16:45:42.226Z,11.38
2022-12-23T16:48:20.277Z,11.14
2022-12-23T16:50:49.760Z,10.84
2022-12-23T16:53:17.878Z,11.00
2022-12-23T16:55:52.429Z,10.59
2022-12-23T16:58:26.313Z,10.96
2022-12-23T17:00:54.907Z,10.67
2022-12-23T17:03:22.963Z,10.66
2022-12-23T17:05:50.790Z,10.65
2022-12-23T17:08:18.879Z,10.63
2022-12-23T17:10:47.796Z,11.08
2022-12-23T17:13:19.555Z,11.11
2022-12-23T17:15:48.798Z,11.31
2022-12-23T17:18:18.942Z,11.05
2022-12-23T17:20:49.933Z,11.02
2022-12-23T17:23:28.888Z,11.04
2022-12-23T17:25:57.042Z,11.04
2022-12-23T17:28:30.485Z,11.11
2022-12-23T17:31:01.517Z,10.76
2022-12-23T17:33:32.387Z,10.72
2022-12-23T17:36:00.578Z,10.57
2022-12-23T17:38:30.028Z,10.71
2022-12-23T17:40:59.423Z,10.62
2022-12-23T17:43:28.289Z,10.14
2022-12-23T17:45:56.259Z,10.12
2022-12-23T17:48:31.347Z,10.76
2022-12-23T17:51:00.049Z,10.77
2022-12-23T17:53:28.003Z,10.43
2022-12-23T17:55:56.275Z,10.72
2022-12-23T17:58:25.076Z,10.68
2022-12-23T18:00:53.050Z,10.67
2022-12-23T18:03:26.006Z,10.58
2022-12-23T18:06:01.241Z,10.09
2022-12-23T18:08:29.871Z,10.26
2022-12-23T18:10:59.481Z,10.84
2022-12-23T18:13:27.498Z,10.86
2022-12-23T18:15:55.588Z,10.68
2022-12-23T18:18:37.746Z,10.69
2022-12-23T18:21:24.816Z,10.94
2022-12-23T18:23:56.520Z,11.19
2022-12-23T18:26:25.923Z,10.90
2022-12-23T18:28:54.332Z,10.96
2022-12-23T18:31:27.172Z,11.22
2022-12-23T18:33:57.364Z,10.69
2022-12-23T18:36:27.974Z,10.45
2022-12-23T18:38:57.062Z,10.56
2022-12-23T18:41:26.530Z,11.04
2022-12-23T18:43:55.348Z,11.08
2022-12-23T18:46:23.778Z,10.63
2022-12-23T18:48:52.075Z,10.53
2022-12-23T18:51:22.695Z,10.75
2022-12-23T18:53:50.916Z,10.38
2022-12-23T18:56:21.265Z,10.26
2022-12-23T18:58:49.605Z,10.31
2022-12-23T19:01:19.358Z,10.33
2022-12-23T19:03:47.545Z,10.06
2022-12-23T19:06:16.980Z,10.56
2022-12-23T19:08:46.547Z,10.86
2022-12-23T19:11:18.024Z,10.84
2022-12-23T19:13:46.616Z,10.53
2022-12-23T19:16:16.118Z,10.76
2022-12-23T19:18:44.561Z,10.77
2022-12-23T19:21:13.258Z,10.67
2022-12-23T19:23:42.444Z,10.34
2022-12-23T19:26:14.972Z,10.05
2022-12-23T19:28:43.400Z,10.31
2022-12-23T19:31:15.134Z,10.35
2022-12-23T19:33:45.559Z,10.66
2022-12-23T19:36:16.187Z,10.54
2022-12-23T19:38:44.028Z,10.64
2022-12-23T19:41:13.229Z,10.43
2022-12-23T19:43:44.741Z,10.67
2022-12-23T19:46:15.192Z,10.26
2022-12-23T19:48:43.735Z,10.73
2022-12-23T19:51:14.895Z,10.81
2022-12-23T19:53:44.773Z,10.02
2022-12-23T19:56:17.120Z,10.36
2022-12-23T19:58:46.133Z,10.86
2022-12-23T20:01:16.887Z,10.66
2022-12-23T20:03:47.589Z,11.10
2022-12-23T20:06:20.011Z,11.34
2022-12-23T20:08:48.877Z,11.19
2022-12-23T20:11:20.614Z,11.16
2022-12-23T20:13:53.591Z,11.18
2022-12-23T20:16:22.335Z,11.47
2022-12-23T20:18:50.188Z,11.44
2022-12-23T20:21:18.480Z,11.51
2022-12-23T20:23:46.877Z,11.82
2022-12-23T20:26:17.701Z,11.71
2022-12-23T20:28:47.619Z,11.79
2022-12-23T20:31:20.550Z,11.45
2022-12-23T20:33:50.041Z,11.87
2022-12-23T20:36:21.606Z,11.70
2022-12-23T20:38:51.473Z,11.51
2022-12-23T20:41:22.928Z,11.87
2022-12-23T20:44:31.604Z,11.97
2022-12-23T20:46:40.877Z,11.93
2022-12-23T20:49:09.062Z,11.47
2022-12-23T20:51:37.163Z,11.91
2022-12-23T20:54:05.863Z,11.85
2022-12-23T20:56:33.987Z,12.01
2022-12-23T20:59:45.919Z,11.76
2022-12-23T21:02:14.598Z,11.80
2022-12-23T21:04:43.035Z,11.26
2022-12-23T21:07:10.877Z,10.62
2022-12-23T21:09:38.815Z,10.81
2022-12-23T21:12:07.128Z,10.96
2022-12-23T21:14:35.338Z,10.98
2022-12-23T21:17:04.429Z,11.06
2022-12-23T21:19:32.850Z,11.27
2022-12-23T21:22:00.860Z,11.08
2022-12-23T21:24:28.889Z,11.43
2022-12-23T21:26:57.426Z,11.05
2022-12-23T21:29:26.585Z,11.03
2022-12-23T21:31:54.977Z,11.21
2022-12-23T21:34:25.105Z,11.26
2022-12-23T21:36:53.539Z,11.04
2022-12-23T21:39:21.451Z,11.20
2022-12-23T21:41:51.213Z,11.40
2022-12-23T21:44:19.160Z,11.10
2022-12-23T21:46:47.334Z,11.21
2022-12-23T21:49:15.156Z,11.22
2022-12-23T21:51:44.270Z,11.09
2022-12-23T21:54:13.121Z,11.36
2022-12-23T21:56:42.244Z,11.38
2022-12-23T21:59:14.491Z,11.30
2022-12-23T22:01:43.416Z,11.33
2022-12-23T22:04:12.180Z,11.19
2022-12-23T22:06:44.895Z,11.41
2022-12-23T22:09:15.739Z,11.45
2022-12-23T22:11:44.586Z,11.23
2022-12-23T22:14:16.056Z,11.15
2022-12-23T22:16:44.245Z,11.46
2022-12-23T22:19:13.173Z,11.30
2022-12-23T22:21:42.453Z,11.18
2022-12-23T22:24:12.496Z,11.20
2022-12-23T22:26:41.594Z,11.05
2022-12-23T22:29:09.506Z,11.11
2022-12-23T22:31:42.043Z,10.89
2022-12-23T22:34:15.103Z,11.00
2022-12-23T22:36:43.338Z,11.04
2022-12-23T22:39:20.656Z,11.14
2022-12-23T22:41:50.569Z,11.19
2022-12-23T22:44:19.853Z,11.14
2022-12-23T22:46:47.994Z,11.04
2022-12-23T22:49:16.873Z,10.94
2022-12-23T22:51:45.828Z,10.93
2022-12-23T22:54:15.220Z,11.01
2022-12-23T22:56:43.158Z,10.82
2022-12-23T22:59:22.026Z,10.86
2022-12-23T23:01:51.622Z,10.86
2022-12-23T23:04:19.964Z,10.95
2022-12-23T23:06:48.306Z,10.75
2022-12-23T23:09:21.126Z,10.87
2022-12-23T23:11:49.565Z,10.82
2022-12-23T23:14:18.540Z,10.94
2022-12-23T23:16:46.416Z,10.84
2022-12-23T23:19:15.115Z,10.66
2022-12-23T23:21:43.488Z,10.84
2022-12-23T23:24:11.886Z,10.56
2022-12-23T23:26:41.157Z,10.73
2022-12-23T23:29:09.465Z,11.01
2022-12-23T23:31:42.910Z,10.88
2022-12-23T23:34:11.884Z,10.80
2022-12-23T23:36:40.187Z,10.65
2022-12-23T23:39:08.121Z,10.55
2022-12-23T23:41:36.268Z,10.60
2022-12-23T23:44:06.581Z,10.58
2022-12-23T23:46:35.614Z,10.54
2022-12-23T23:49:03.692Z,10.57
2022-12-23T23:51:32.105Z,10.66
2022-12-23T23:54:00.369Z,10.78
2022-12-23T23:56:35.777Z,10.58
2022-12-23T23:59:09.448Z,10.53
